sensor_id;sensor_type;location;lat;lon;timestamp;pressure;altitude;pressure_sealevel;temperature;humidity
6694;BME280;3384;42.628;23.380;2023-11-21T00:00:52;94015.06;;;5.22;100.00
6694;BME280;3384;42.628;23.380;2023-11-21T00:03:19;94024.88;;;5.21;100.00
6694;BME280;3384;42.628;23.380;2023-11-21T00:05:50;94014.97;;;5.37;100.00
6694;BME280;3384;42.628;23.380;2023-11-21T00:08:17;94006.94;;;5.47;100.00
6694;BME280;3384;42.628;23.380;2023-11-21T00:10:44;94009.00;;;5.60;100.00
6694;BME280;3384;42.628;23.380;2023-11-21T00:13:11;94016.66;;;6.10;100.00
6694;BME280;3384;42.628;23.380;2023-11-21T00:15:39;94008.69;;;6.10;100.00
6694;BME280;3384;42.628;23.380;2023-11-21T00:18:06;94012.38;;;6.14;100.00
6694;BME280;3384;42.628;23.380;2023-11-21T00:20:33;94013.75;;;6.07;100.00
6694;BME280;3384;42.628;23.380;2023-11-21T00:23:01;94017.59;;;5.91;100.00
6694;BME280;3384;42.628;23.380;2023-11-21T00:25:30;94018.59;;;6.00;100.00
6694;BME280;3384;42.628;23.380;2023-11-21T00:27:57;94019.44;;;5.95;100.00
6694;BME280;3384;42.628;23.380;2023-11-21T00:30:26;94005.69;;;6.17;100.00
6694;BME280;3384;42.628;23.380;2023-11-21T00:32:54;94012.00;;;6.26;100.00
6694;BME280;3384;42.628;23.380;2023-11-21T00:35:21;94012.66;;;6.13;100.00
6694;BME280;3384;42.628;23.380;2023-11-21T00:37:48;93997.81;;;6.35;100.00
6694;BME280;3384;42.628;23.380;2023-11-21T00:40:17;93993.13;;;6.22;100.00
6694;BME280;3384;42.628;23.380;2023-11-21T00:42:46;93998.38;;;6.32;100.00
6694;BME280;3384;42.628;23.380;2023-11-21T00:45:13;94001.25;;;6.36;100.00
6694;BME280;3384;42.628;23.380;2023-11-21T00:47:40;94004.91;;;6.45;100.00
6694;BME280;3384;42.628;23.380;2023-11-21T00:50:08;94010.28;;;6.40;100.00
6694;BME280;3384;42.628;23.380;2023-11-21T00:52:36;94017.84;;;6.28;100.00
6694;BME280;3384;42.628;23.380;2023-11-21T00:55:03;94011.72;;;6.27;100.00
6694;BME280;3384;42.628;23.380;2023-11-21T00:57:34;94001.50;;;6.39;100.00
6694;BME280;3384;42.628;23.380;2023-11-21T01:00:01;94000.78;;;6.29;100.00
6694;BME280;3384;42.628;23.380;2023-11-21T01:02:32;93997.44;;;6.18;100.00
6694;BME280;3384;42.628;23.380;2023-11-21T01:05:01;93991.66;;;6.11;100.00
6694;BME280;3384;42.628;23.380;2023-11-21T01:07:27;93991.56;;;6.21;100.00
6694;BME280;3384;42.628;23.380;2023-11-21T01:09:54;93990.16;;;5.95;100.00
6694;BME280;3384;42.628;23.380;2023-11-21T01:12:21;93988.13;;;5.87;100.00
6694;BME280;3384;42.628;23.380;2023-11-21T01:14:51;93989.34;;;6.00;100.00
6694;BME280;3384;42.628;23.380;2023-11-21T01:17:19;93986.53;;;5.86;100.00
6694;BME280;3384;42.628;23.380;2023-11-21T01:19:48;93994.34;;;5.67;100.00
6694;BME280;3384;42.628;23.380;2023-11-21T01:22:15;93987.59;;;5.85;100.00
6694;BME280;3384;42.628;23.380;2023-11-21T01:24:42;94000.59;;;5.43;100.00
6694;BME280;3384;42.628;23.380;2023-11-21T01:27:08;93996.09;;;5.43;100.00
6694;BME280;3384;42.628;23.380;2023-11-21T01:29:35;94001.03;;;5.60;100.00
6694;BME280;3384;42.628;23.380;2023-11-21T01:32:04;93980.38;;;5.47;100.00
6694;BME280;3384;42.628;23.380;2023-11-21T01:34:33;93990.84;;;5.28;100.00
6694;BME280;3384;42.628;23.380;2023-11-21T01:37:00;93995.97;;;5.20;100.00
6694;BME280;3384;42.628;23.380;2023-11-21T01:39:30;93989.56;;;5.21;100.00
6694;BME280;3384;42.628;23.380;2023-11-21T01:41:57;93997.06;;;5.57;100.00
6694;BME280;3384;42.628;23.380;2023-11-21T01:44:24;93998.56;;;5.25;100.00
6694;BME280;3384;42.628;23.380;2023-11-21T01:46:51;93996.22;;;5.18;100.00
6694;BME280;3384;42.628;23.380;2023-11-21T01:49:24;94000.88;;;5.46;100.00
6694;BME280;3384;42.628;23.380;2023-11-21T01:51:51;94008.66;;;5.23;100.00
6694;BME280;3384;42.628;23.380;2023-11-21T01:54:19;93988.94;;;5.39;100.00
6694;BME280;3384;42.628;23.380;2023-11-21T01:56:47;93985.19;;;5.40;100.00
6694;BME280;3384;42.628;23.380;2023-11-21T01:59:18;93981.34;;;5.22;100.00
6694;BME280;3384;42.628;23.380;2023-11-21T02:01:46;93978.91;;;5.31;100.00
6694;BME280;3384;42.628;23.380;2023-11-21T02:04:13;93982.69;;;5.15;100.00
6694;BME280;3384;42.628;23.380;2023-11-21T02:06:42;93984.91;;;5.46;100.00
6694;BME280;3384;42.628;23.380;2023-11-21T02:09:10;93984.31;;;5.54;100.00
6694;BME280;3384;42.628;23.380;2023-11-21T02:11:40;93977.44;;;5.48;100.00
6694;BME280;3384;42.628;23.380;2023-11-21T02:14:07;93998.66;;;5.10;100.00
6694;BME280;3384;42.628;23.380;2023-11-21T02:16:35;94000.06;;;4.97;100.00
6694;BME280;3384;42.628;23.380;2023-11-21T02:19:02;93996.78;;;5.10;100.00
6694;BME280;3384;42.628;23.380;2023-11-21T02:21:34;94000.47;;;5.63;100.00
6694;BME280;3384;42.628;23.380;2023-11-21T02:24:08;93991.44;;;5.64;100.00
6694;BME280;3384;42.628;23.380;2023-11-21T02:26:35;93992.91;;;5.41;100.00
6694;BME280;3384;42.628;23.380;2023-11-21T02:29:02;93986.09;;;5.25;100.00
6694;BME280;3384;42.628;23.380;2023-11-21T02:31:30;93993.91;;;5.07;100.00
6694;BME280;3384;42.628;23.380;2023-11-21T02:33:58;93990.56;;;5.35;100.00
6694;BME280;3384;42.628;23.380;2023-11-21T02:36:25;93984.84;;;5.56;100.00
6694;BME280;3384;42.628;23.380;2023-11-21T02:38:51;93985.19;;;5.45;100.00
6694;BME280;3384;42.628;23.380;2023-11-21T02:41:20;93995.78;;;5.50;100.00
6694;BME280;3384;42.628;23.380;2023-11-21T02:43:47;93991.72;;;5.62;100.00
6694;BME280;3384;42.628;23.380;2023-11-21T02:46:13;93990.28;;;5.75;100.00
6694;BME280;3384;42.628;23.380;2023-11-21T02:48:40;93990.94;;;5.57;100.00
6694;BME280;3384;42.628;23.380;2023-11-21T02:51:07;93983.72;;;5.67;100.00
6694;BME280;3384;42.628;23.380;2023-11-21T02:53:34;93988.94;;;5.83;100.00
6694;BME280;3384;42.628;23.380;2023-11-21T02:56:01;93988.81;;;5.98;100.00
6694;BME280;3384;42.628;23.380;2023-11-21T02:58:29;93988.47;;;5.70;100.00
6694;BME280;3384;42.628;23.380;2023-11-21T03:00:56;93987.72;;;5.65;100.00
6694;BME280;3384;42.628;23.380;2023-11-21T03:03:23;93993.22;;;5.35;100.00
6694;BME280;3384;42.628;23.380;2023-11-21T03:05:50;93985.19;;;5.45;100.00
6694;BME280;3384;42.628;23.380;2023-11-21T03:08:17;93975.25;;;5.60;100.00
6694;BME280;3384;42.628;23.380;2023-11-21T03:10:44;93978.97;;;5.59;100.00
6694;BME280;3384;42.628;23.380;2023-11-21T03:13:11;93971.56;;;5.56;100.00
6694;BME280;3384;42.628;23.380;2023-11-21T03:15:40;93966.09;;;5.38;100.00
6694;BME280;3384;42.628;23.380;2023-11-21T03:18:08;93963.09;;;5.01;100.00
6694;BME280;3384;42.628;23.380;2023-11-21T03:20:34;93979.28;;;5.09;100.00
6694;BME280;3384;42.628;23.380;2023-11-21T03:23:01;93974.63;;;5.30;100.00
6694;BME280;3384;42.628;23.380;2023-11-21T03:25:29;93992.25;;;4.52;100.00
6694;BME280;3384;42.628;23.380;2023-11-21T03:27:56;94002.03;;;4.47;100.00
6694;BME280;3384;42.628;23.380;2023-11-21T03:30:23;94003.78;;;4.86;100.00
6694;BME280;3384;42.628;23.380;2023-11-21T03:32:51;94005.31;;;5.02;100.00
6694;BME280;3384;42.628;23.380;2023-11-21T03:35:18;93999.38;;;5.25;100.00
6694;BME280;3384;42.628;23.380;2023-11-21T03:37:46;94000.81;;;5.03;100.00
6694;BME280;3384;42.628;23.380;2023-11-21T03:40:13;93995.84;;;4.81;100.00
6694;BME280;3384;42.628;23.380;2023-11-21T03:42:40;94016.00;;;4.87;100.00
6694;BME280;3384;42.628;23.380;2023-11-21T03:45:08;93985.81;;;4.68;100.00
6694;BME280;3384;42.628;23.380;2023-11-21T03:47:37;93998.66;;;5.05;100.00
6694;BME280;3384;42.628;23.380;2023-11-21T03:50:06;93994.00;;;4.77;100.00
6694;BME280;3384;42.628;23.380;2023-11-21T03:52:34;93991.84;;;4.84;100.00
6694;BME280;3384;42.628;23.380;2023-11-21T03:55:01;93989.72;;;4.86;100.00
6694;BME280;3384;42.628;23.380;2023-11-21T03:57:29;93979.19;;;4.61;100.00
6694;BME280;3384;42.628;23.380;2023-11-21T03:59:56;93981.31;;;4.54;100.00
6694;BME280;3384;42.628;23.380;2023-11-21T04:02:23;93980.28;;;4.50;100.00
6694;BME280;3384;42.628;23.380;2023-11-21T04:04:51;93992.84;;;5.03;100.00
6694;BME280;3384;42.628;23.380;2023-11-21T04:07:19;93980.13;;;4.95;100.00
6694;BME280;3384;42.628;23.380;2023-11-21T04:09:47;93977.00;;;4.78;100.00
6694;BME280;3384;42.628;23.380;2023-11-21T04:12:14;93978.06;;;4.77;100.00
6694;BME280;3384;42.628;23.380;2023-11-21T04:14:41;93978.19;;;5.10;100.00
6694;BME280;3384;42.628;23.380;2023-11-21T04:17:08;93978.41;;;4.55;100.00
6694;BME280;3384;42.628;23.380;2023-11-21T04:19:34;93975.25;;;4.43;100.00
6694;BME280;3384;42.628;23.380;2023-11-21T04:22:01;93981.31;;;4.64;100.00
6694;BME280;3384;42.628;23.380;2023-11-21T04:24:31;93981.88;;;4.46;100.00
6694;BME280;3384;42.628;23.380;2023-11-21T04:26:57;93982.97;;;4.45;100.00
6694;BME280;3384;42.628;23.380;2023-11-21T04:29:24;93978.41;;;4.55;100.00
6694;BME280;3384;42.628;23.380;2023-11-21T04:31:52;93983.19;;;4.53;100.00
6694;BME280;3384;42.628;23.380;2023-11-21T04:34:19;93986.63;;;4.54;100.00
6694;BME280;3384;42.628;23.380;2023-11-21T04:36:46;93987.72;;;4.58;100.00
6694;BME280;3384;42.628;23.380;2023-11-21T04:39:13;93991.91;;;4.69;100.00
6694;BME280;3384;42.628;23.380;2023-11-21T04:41:41;93990.84;;;4.75;100.00
6694;BME280;3384;42.628;23.380;2023-11-21T04:44:08;93976.22;;;4.72;100.00
6694;BME280;3384;42.628;23.380;2023-11-21T04:46:35;93974.09;;;4.69;100.00
6694;BME280;3384;42.628;23.380;2023-11-21T04:49:02;93978.16;;;4.47;100.00
6694;BME280;3384;42.628;23.380;2023-11-21T04:51:29;93986.25;;;4.95;100.00
6694;BME280;3384;42.628;23.380;2023-11-21T04:53:57;93995.31;;;4.84;100.00
6694;BME280;3384;42.628;23.380;2023-11-21T04:56:24;93991.66;;;4.70;100.00
6694;BME280;3384;42.628;23.380;2023-11-21T04:58:53;93987.00;;;5.01;100.00
6694;BME280;3384;42.628;23.380;2023-11-21T05:01:19;93990.34;;;4.63;100.00
6694;BME280;3384;42.628;23.380;2023-11-21T05:03:46;93980.56;;;5.12;100.00
6694;BME280;3384;42.628;23.380;2023-11-21T05:06:14;93999.72;;;5.09;100.00
6694;BME280;3384;42.628;23.380;2023-11-21T05:08:40;93998.56;;;4.66;100.00
6694;BME280;3384;42.628;23.380;2023-11-21T05:11:07;93989.50;;;4.77;100.00
6694;BME280;3384;42.628;23.380;2023-11-21T05:13:36;94002.91;;;5.11;100.00
6694;BME280;3384;42.628;23.380;2023-11-21T05:16:06;93982.53;;;4.86;100.00
6694;BME280;3384;42.628;23.380;2023-11-21T05:18:33;93984.16;;;4.82;100.00
6694;BME280;3384;42.628;23.380;2023-11-21T05:21:00;93975.72;;;4.65;100.00
6694;BME280;3384;42.628;23.380;2023-11-21T05:23:27;93987.66;;;4.68;100.00
6694;BME280;3384;42.628;23.380;2023-11-21T05:25:54;93977.22;;;4.91;100.00
6694;BME280;3384;42.628;23.380;2023-11-21T05:28:21;93986.19;;;5.00;100.00
6694;BME280;3384;42.628;23.380;2023-11-21T05:30:49;93988.22;;;5.23;100.00
6694;BME280;3384;42.628;23.380;2023-11-21T05:33:17;94002.25;;;4.65;100.00
6694;BME280;3384;42.628;23.380;2023-11-21T05:35:44;93990.06;;;4.64;100.00
6694;BME280;3384;42.628;23.380;2023-11-21T05:38:11;94004.91;;;4.65;100.00
6694;BME280;3384;42.628;23.380;2023-11-21T05:40:38;94007.75;;;4.94;100.00
6694;BME280;3384;42.628;23.380;2023-11-21T05:43:07;93991.28;;;4.92;100.00
6694;BME280;3384;42.628;23.380;2023-11-21T05:45:34;93997.66;;;4.91;100.00
6694;BME280;3384;42.628;23.380;2023-11-21T05:48:01;94003.81;;;4.81;100.00
6694;BME280;3384;42.628;23.380;2023-11-21T05:50:30;94008.34;;;4.71;100.00
6694;BME280;3384;42.628;23.380;2023-11-21T05:52:58;94000.91;;;4.73;100.00
6694;BME280;3384;42.628;23.380;2023-11-21T05:55:26;94008.94;;;4.58;100.00
6694;BME280;3384;42.628;23.380;2023-11-21T05:57:53;93980.16;;;4.90;100.00
6694;BME280;3384;42.628;23.380;2023-11-21T06:00:20;94008.34;;;4.71;100.00
6694;BME280;3384;42.628;23.380;2023-11-21T06:02:47;93996.94;;;4.80;100.00
6694;BME280;3384;42.628;23.380;2023-11-21T06:05:17;94004.81;;;4.95;100.00
6694;BME280;3384;42.628;23.380;2023-11-21T06:07:45;93994.59;;;4.59;100.00
6694;BME280;3384;42.628;23.380;2023-11-21T06:10:12;94005.56;;;5.06;100.00
6694;BME280;3384;42.628;23.380;2023-11-21T06:12:40;94005.44;;;5.36;100.00
6694;BME280;3384;42.628;23.380;2023-11-21T06:15:10;94007.63;;;5.24;100.00
6694;BME280;3384;42.628;23.380;2023-11-21T06:17:39;94017.59;;;5.47;100.00
6694;BME280;3384;42.628;23.380;2023-11-21T06:20:07;94006.72;;;4.90;100.00
6694;BME280;3384;42.628;23.380;2023-11-21T06:22:36;94009.59;;;4.93;100.00
6694;BME280;3384;42.628;23.380;2023-11-21T06:25:06;94011.44;;;4.98;100.00
6694;BME280;3384;42.628;23.380;2023-11-21T06:27:34;94014.19;;;5.36;100.00
6694;BME280;3384;42.628;23.380;2023-11-21T06:30:03;94033.88;;;5.30;100.00
6694;BME280;3384;42.628;23.380;2023-11-21T06:32:30;94025.50;;;5.57;100.00
6694;BME280;3384;42.628;23.380;2023-11-21T06:34:57;94021.94;;;5.28;100.00
6694;BME280;3384;42.628;23.380;2023-11-21T06:37:25;94016.28;;;5.44;100.00
6694;BME280;3384;42.628;23.380;2023-11-21T06:39:52;94033.78;;;5.50;100.00
6694;BME280;3384;42.628;23.380;2023-11-21T06:42:20;94027.13;;;5.53;100.00
6694;BME280;3384;42.628;23.380;2023-11-21T06:44:47;94018.06;;;5.54;100.00
6694;BME280;3384;42.628;23.380;2023-11-21T06:47:14;94029.81;;;5.43;100.00
6694;BME280;3384;42.628;23.380;2023-11-21T06:49:43;94022.97;;;5.32;100.00
6694;BME280;3384;42.628;23.380;2023-11-21T06:52:09;94038.63;;;5.38;100.00
6694;BME280;3384;42.628;23.380;2023-11-21T06:54:37;94046.84;;;5.42;100.00
6694;BME280;3384;42.628;23.380;2023-11-21T06:57:04;94035.38;;;5.51;100.00
6694;BME280;3384;42.628;23.380;2023-11-21T06:59:32;94022.91;;;5.47;100.00
6694;BME280;3384;42.628;23.380;2023-11-21T07:02:01;94038.38;;;5.35;100.00
6694;BME280;3384;42.628;23.380;2023-11-21T07:04:28;94040.34;;;5.63;100.00
6694;BME280;3384;42.628;23.380;2023-11-21T07:06:55;94034.13;;;5.88;100.00
6694;BME280;3384;42.628;23.380;2023-11-21T07:09:22;94037.06;;;5.81;100.00
6694;BME280;3384;42.628;23.380;2023-11-21T07:11:48;94034.41;;;5.81;100.00
6694;BME280;3384;42.628;23.380;2023-11-21T07:14:15;94031.63;;;6.01;100.00
6694;BME280;3384;42.628;23.380;2023-11-21T07:16:46;94027.50;;;5.80;100.00
6694;BME280;3384;42.628;23.380;2023-11-21T07:19:13;94029.66;;;5.73;100.00
6694;BME280;3384;42.628;23.380;2023-11-21T07:21:41;94025.97;;;5.69;100.00
6694;BME280;3384;42.628;23.380;2023-11-21T07:24:08;94023.25;;;5.79;100.00
6694;BME280;3384;42.628;23.380;2023-11-21T07:26:36;94027.44;;;5.90;100.00
6694;BME280;3384;42.628;23.380;2023-11-21T07:29:04;94033.66;;;6.14;100.00
6694;BME280;3384;42.628;23.380;2023-11-21T07:31:31;94018.56;;;6.05;100.00
6694;BME280;3384;42.628;23.380;2023-11-21T07:34:01;94024.13;;;6.08;100.00
6694;BME280;3384;42.628;23.380;2023-11-21T07:36:28;94037.69;;;6.07;100.00
6694;BME280;3384;42.628;23.380;2023-11-21T07:38:55;94020.22;;;6.29;100.00
6694;BME280;3384;42.628;23.380;2023-11-21T07:41:22;94017.16;;;6.17;100.00
6694;BME280;3384;42.628;23.380;2023-11-21T07:43:48;94009.56;;;6.29;100.00
6694;BME280;3384;42.628;23.380;2023-11-21T07:46:15;94022.13;;;6.24;100.00
6694;BME280;3384;42.628;23.380;2023-11-21T07:48:43;94022.00;;;6.10;100.00
6694;BME280;3384;42.628;23.380;2023-11-21T07:51:12;94009.72;;;6.43;100.00
6694;BME280;3384;42.628;23.380;2023-11-21T07:53:39;94020.69;;;6.36;100.00
6694;BME280;3384;42.628;23.380;2023-11-21T07:56:08;94017.50;;;6.34;100.00
6694;BME280;3384;42.628;23.380;2023-11-21T07:58:35;94011.41;;;6.62;100.00
6694;BME280;3384;42.628;23.380;2023-11-21T08:01:02;94006.47;;;6.51;100.00
6694;BME280;3384;42.628;23.380;2023-11-21T08:03:29;94009.41;;;6.73;100.00
6694;BME280;3384;42.628;23.380;2023-11-21T08:05:56;93998.72;;;6.78;100.00
6694;BME280;3384;42.628;23.380;2023-11-21T08:08:25;93997.19;;;6.95;100.00
6694;BME280;3384;42.628;23.380;2023-11-21T08:10:53;93994.88;;;6.89;100.00
6694;BME280;3384;42.628;23.380;2023-11-21T08:13:22;93992.09;;;6.99;100.00
6694;BME280;3384;42.628;23.380;2023-11-21T08:15:50;93990.09;;;7.09;100.00
6694;BME280;3384;42.628;23.380;2023-11-21T08:18:17;93988.97;;;6.92;100.00
6694;BME280;3384;42.628;23.380;2023-11-21T08:20:44;93999.22;;;7.03;100.00
6694;BME280;3384;42.628;23.380;2023-11-21T08:23:14;93998.19;;;6.76;100.00
6694;BME280;3384;42.628;23.380;2023-11-21T08:25:44;93994.53;;;6.95;100.00
6694;BME280;3384;42.628;23.380;2023-11-21T08:28:11;93995.47;;;7.28;100.00
6694;BME280;3384;42.628;23.380;2023-11-21T08:30:40;94005.88;;;7.06;100.00
6694;BME280;3384;42.628;23.380;2023-11-21T08:33:07;94001.38;;;7.01;100.00
6694;BME280;3384;42.628;23.380;2023-11-21T08:35:34;93990.78;;;6.96;100.00
6694;BME280;3384;42.628;23.380;2023-11-21T08:38:01;93992.88;;;7.41;100.00
6694;BME280;3384;42.628;23.380;2023-11-21T08:40:28;93997.50;;;7.54;100.00
6694;BME280;3384;42.628;23.380;2023-11-21T08:42:57;93994.09;;;7.49;100.00
6694;BME280;3384;42.628;23.380;2023-11-21T08:45:25;93989.34;;;7.46;100.00
6694;BME280;3384;42.628;23.380;2023-11-21T08:47:52;93981.22;;;7.56;100.00
6694;BME280;3384;42.628;23.380;2023-11-21T08:50:19;93994.34;;;7.52;100.00
6694;BME280;3384;42.628;23.380;2023-11-21T08:52:46;93984.47;;;7.71;100.00
6694;BME280;3384;42.628;23.380;2023-11-21T08:55:13;93976.41;;;7.76;100.00
6694;BME280;3384;42.628;23.380;2023-11-21T08:57:41;93979.63;;;7.73;100.00
6694;BME280;3384;42.628;23.380;2023-11-21T09:00:12;93975.75;;;7.66;100.00
6694;BME280;3384;42.628;23.380;2023-11-21T09:02:42;93987.91;;;7.90;100.00
6694;BME280;3384;42.628;23.380;2023-11-21T09:05:10;93966.88;;;7.70;100.00
6694;BME280;3384;42.628;23.380;2023-11-21T09:07:38;93937.25;;;7.72;100.00
6694;BME280;3384;42.628;23.380;2023-11-21T09:10:06;93941.81;;;7.85;100.00
6694;BME280;3384;42.628;23.380;2023-11-21T09:12:34;93937.81;;;7.87;100.00
6694;BME280;3384;42.628;23.380;2023-11-21T09:15:03;93932.59;;;7.96;100.00
6694;BME280;3384;42.628;23.380;2023-11-21T09:17:32;93921.41;;;7.94;100.00
6694;BME280;3384;42.628;23.380;2023-11-21T09:19:59;93929.44;;;7.75;100.00
6694;BME280;3384;42.628;23.380;2023-11-21T09:22:26;93913.66;;;8.11;100.00
6694;BME280;3384;42.628;23.380;2023-11-21T09:24:55;93918.97;;;7.97;100.00
6694;BME280;3384;42.628;23.380;2023-11-21T09:27:23;93907.81;;;7.77;100.00
6694;BME280;3384;42.628;23.380;2023-11-21T09:29:51;93920.59;;;7.61;100.00
6694;BME280;3384;42.628;23.380;2023-11-21T09:32:18;93903.59;;;7.57;100.00
6694;BME280;3384;42.628;23.380;2023-11-21T09:34:48;93896.72;;;7.70;100.00
6694;BME280;3384;42.628;23.380;2023-11-21T09:37:15;93879.94;;;7.69;100.00
6694;BME280;3384;42.628;23.380;2023-11-21T09:39:42;93875.78;;;7.63;100.00
6694;BME280;3384;42.628;23.380;2023-11-21T09:42:10;93884.38;;;7.74;100.00
6694;BME280;3384;42.628;23.380;2023-11-21T09:44:47;93865.66;;;7.79;100.00
6694;BME280;3384;42.628;23.380;2023-11-21T09:47:15;93871.44;;;7.67;100.00
6694;BME280;3384;42.628;23.380;2023-11-21T09:49:45;93872.16;;;7.86;100.00
6694;BME280;3384;42.628;23.380;2023-11-21T09:52:21;93859.44;;;7.83;100.00
6694;BME280;3384;42.628;23.380;2023-11-21T09:54:51;93865.38;;;7.80;100.00
6694;BME280;3384;42.628;23.380;2023-11-21T09:57:19;93841.06;;;7.95;100.00
6694;BME280;3384;42.628;23.380;2023-11-21T09:59:50;93840.91;;;8.19;100.00
6694;BME280;3384;42.628;23.380;2023-11-21T10:02:17;93824.41;;;8.17;100.00
6694;BME280;3384;42.628;23.380;2023-11-21T10:04:46;93823.03;;;8.06;100.00
6694;BME280;3384;42.628;23.380;2023-11-21T10:07:17;93814.06;;;8.43;100.00
6694;BME280;3384;42.628;23.380;2023-11-21T10:09:45;93807.69;;;8.66;100.00
6694;BME280;3384;42.628;23.380;2023-11-21T10:12:15;93814.22;;;8.73;100.00
6694;BME280;3384;42.628;23.380;2023-11-21T10:14:42;93821.34;;;8.64;100.00
6694;BME280;3384;42.628;23.380;2023-11-21T10:17:10;93803.34;;;8.70;100.00
6694;BME280;3384;42.628;23.380;2023-11-21T10:19:39;93794.28;;;8.93;100.00
6694;BME280;3384;42.628;23.380;2023-11-21T10:22:07;93774.56;;;8.67;100.00
6694;BME280;3384;42.628;23.380;2023-11-21T10:24:35;93788.41;;;8.69;100.00
6694;BME280;3384;42.628;23.380;2023-11-21T10:27:04;93781.69;;;9.07;100.00
6694;BME280;3384;42.628;23.380;2023-11-21T10:29:31;93773.13;;;9.18;100.00
6694;BME280;3384;42.628;23.380;2023-11-21T10:32:02;93782.94;;;9.09;100.00
6694;BME280;3384;42.628;23.380;2023-11-21T10:34:29;93782.28;;;9.04;100.00
6694;BME280;3384;42.628;23.380;2023-11-21T10:36:56;93775.97;;;9.22;100.00
6694;BME280;3384;42.628;23.380;2023-11-21T10:39:24;93778.34;;;9.23;100.00
6694;BME280;3384;42.628;23.380;2023-11-21T10:41:55;93765.78;;;9.24;100.00
6694;BME280;3384;42.628;23.380;2023-11-21T10:44:22;93771.06;;;9.37;100.00
6694;BME280;3384;42.628;23.380;2023-11-21T10:46:51;93757.38;;;9.39;100.00
6694;BME280;3384;42.628;23.380;2023-11-21T10:49:21;93755.91;;;9.55;100.00
6694;BME280;3384;42.628;23.380;2023-11-21T10:51:50;93765.41;;;9.61;100.00
6694;BME280;3384;42.628;23.380;2023-11-21T10:54:19;93758.09;;;9.53;100.00
6694;BME280;3384;42.628;23.380;2023-11-21T10:56:48;93756.94;;;9.67;100.00
6694;BME280;3384;42.628;23.380;2023-11-21T10:59:18;93758.47;;;9.90;100.00
6694;BME280;3384;42.628;23.380;2023-11-21T11:01:47;93748.00;;;9.72;100.00
6694;BME280;3384;42.628;23.380;2023-11-21T11:04:18;93744.69;;;10.05;100.00
6694;BME280;3384;42.628;23.380;2023-11-21T11:06:51;93748.84;;;9.59;100.00
6694;BME280;3384;42.628;23.380;2023-11-21T11:09:22;93738.59;;;9.83;100.00
6694;BME280;3384;42.628;23.380;2023-11-21T11:11:48;93745.75;;;9.96;100.00
6694;BME280;3384;42.628;23.380;2023-11-21T11:14:17;93740.06;;;9.89;100.00
6694;BME280;3384;42.628;23.380;2023-11-21T11:16:45;93737.28;;;9.72;100.00
6694;BME280;3384;42.628;23.380;2023-11-21T11:19:12;93725.41;;;9.86;100.00
6694;BME280;3384;42.628;23.380;2023-11-21T11:21:53;93728.19;;;10.12;100.00
6694;BME280;3384;42.628;23.380;2023-11-21T11:24:52;93696.72;;;10.09;100.00
6694;BME280;3384;42.628;23.380;2023-11-21T11:27:30;93705.06;;;10.16;100.00
6694;BME280;3384;42.628;23.380;2023-11-21T11:30:09;93700.19;;;10.18;100.00
6694;BME280;3384;42.628;23.380;2023-11-21T11:32:46;93697.00;;;10.07;100.00
6694;BME280;3384;42.628;23.380;2023-11-21T11:35:22;93689.47;;;10.18;100.00
6694;BME280;3384;42.628;23.380;2023-11-21T11:37:51;93689.50;;;9.87;100.00
6694;BME280;3384;42.628;23.380;2023-11-21T11:40:19;93693.31;;;9.95;100.00
6694;BME280;3384;42.628;23.380;2023-11-21T11:43:01;93685.91;;;9.92;100.00
6694;BME280;3384;42.628;23.380;2023-11-21T11:45:34;93673.09;;;10.19;100.00
6694;BME280;3384;42.628;23.380;2023-11-21T11:48:05;93680.28;;;10.02;100.00
6694;BME280;3384;42.628;23.380;2023-11-21T11:50:32;93679.13;;;9.86;100.00
6694;BME280;3384;42.628;23.380;2023-11-21T11:53:12;93697.34;;;9.84;100.00
6694;BME280;3384;42.628;23.380;2023-11-21T11:55:40;93704.16;;;9.90;100.00
6694;BME280;3384;42.628;23.380;2023-11-21T11:58:07;93692.75;;;10.15;100.00
6694;BME280;3384;42.628;23.380;2023-11-21T12:00:36;93689.50;;;10.35;100.00
6694;BME280;3384;42.628;23.380;2023-11-21T12:03:06;93688.91;;;10.38;100.00
6694;BME280;3384;42.628;23.380;2023-11-21T12:05:34;93686.84;;;10.35;100.00
6694;BME280;3384;42.628;23.380;2023-11-21T12:08:05;93687.97;;;10.51;100.00
6694;BME280;3384;42.628;23.380;2023-11-21T12:10:34;93697.75;;;10.55;100.00
6694;BME280;3384;42.628;23.380;2023-11-21T12:13:03;93697.03;;;10.16;100.00
6694;BME280;3384;42.628;23.380;2023-11-21T12:15:31;93691.25;;;9.92;100.00
6694;BME280;3384;42.628;23.380;2023-11-21T12:17:59;93700.28;;;10.04;100.00
6694;BME280;3384;42.628;23.380;2023-11-21T12:20:27;93698.34;;;10.35;100.00
6694;BME280;3384;42.628;23.380;2023-11-21T12:22:56;93697.53;;;10.26;100.00
6694;BME280;3384;42.628;23.380;2023-11-21T12:25:26;93698.06;;;10.54;100.00
6694;BME280;3384;42.628;23.380;2023-11-21T12:27:55;93682.91;;;10.41;100.00
6694;BME280;3384;42.628;23.380;2023-11-21T12:30:24;93679.91;;;10.34;100.00
6694;BME280;3384;42.628;23.380;2023-11-21T12:32:54;93698.19;;;10.49;100.00
6694;BME280;3384;42.628;23.380;2023-11-21T12:35:24;93690.47;;;10.39;100.00
6694;BME280;3384;42.628;23.380;2023-11-21T12:37:52;93699.00;;;10.02;100.00
6694;BME280;3384;42.628;23.380;2023-11-21T12:40:20;93706.41;;;10.05;100.00
6694;BME280;3384;42.628;23.380;2023-11-21T12:42:51;93697.03;;;10.16;100.00
6694;BME280;3384;42.628;23.380;2023-11-21T12:45:20;93694.59;;;9.97;100.00
6694;BME280;3384;42.628;23.380;2023-11-21T12:47:47;93693.72;;;10.19;100.00
6694;BME280;3384;42.628;23.380;2023-11-21T12:50:15;93691.97;;;10.06;100.00
6694;BME280;3384;42.628;23.380;2023-11-21T12:52:44;93697.50;;;9.79;100.00
6694;BME280;3384;42.628;23.380;2023-11-21T12:55:16;93681.91;;;9.72;100.00
6694;BME280;3384;42.628;23.380;2023-11-21T12:57:45;93660.44;;;10.03;100.00
6694;BME280;3384;42.628;23.380;2023-11-21T13:00:13;93668.59;;;9.98;100.00
6694;BME280;3384;42.628;23.380;2023-11-21T13:02:53;93676.41;;;9.77;100.00
6694;BME280;3384;42.628;23.380;2023-11-21T13:05:25;93673.13;;;9.80;100.00
6694;BME280;3384;42.628;23.380;2023-11-21T13:07:54;93657.16;;;9.67;100.00
6694;BME280;3384;42.628;23.380;2023-11-21T13:10:23;93660.47;;;9.64;100.00
6694;BME280;3384;42.628;23.380;2023-11-21T13:12:55;93657.63;;;9.69;100.00
6694;BME280;3384;42.628;23.380;2023-11-21T13:15:24;93656.69;;;9.65;100.00